createdAt,value
2018-03-27T00:02:14.431Z,1.60
2018-03-27T00:04:41.972Z,1.60
2018-03-27T00:07:09.552Z,1.60
2018-03-27T00:09:37.092Z,1.60
2018-03-27T00:12:04.704Z,1.60
2018-03-27T00:14:32.237Z,1.60
2018-03-27T00:17:00.568Z,1.60
2018-03-27T00:19:28.110Z,1.60
2018-03-27T00:21:56.420Z,1.60
2018-03-27T00:24:24.008Z,1.60
2018-03-27T00:27:00.191Z,1.60
2018-03-27T00:29:39.564Z,1.70
2018-03-27T00:32:18.955Z,1.60
2018-03-27T00:34:58.320Z,1.60
2018-03-27T00:37:37.788Z,1.60
2018-03-27T00:40:17.175Z,1.60
2018-03-27T00:42:56.060Z,1.50
2018-03-27T00:45:23.590Z,1.40
2018-03-27T00:47:51.927Z,1.30
2018-03-27T00:50:19.468Z,1.30
2018-03-27T00:52:47.814Z,1.20
2018-03-27T00:55:15.376Z,1.20
2018-03-27T00:57:42.917Z,1.20
2018-03-27T01:00:10.481Z,1.10
2018-03-27T01:02:38.023Z,1.00
2018-03-27T01:05:09.471Z,0.90
2018-03-27T01:07:37.022Z,0.80
2018-03-27T01:10:13.362Z,0.70
2018-03-27T01:12:40.900Z,0.60
2018-03-27T01:15:08.460Z,0.40
2018-03-27T01:17:35.999Z,0.30
2018-03-27T01:20:03.564Z,0.30
2018-03-27T01:22:31.111Z,0.20
2018-03-27T01:24:59.436Z,0.10
2018-03-27T01:27:26.987Z,0.10
2018-03-27T01:29:54.564Z,0.10
2018-03-27T01:32:22.103Z,0.10
2018-03-27T01:34:50.437Z,0.10
2018-03-27T01:37:17.971Z,0.10
2018-03-27T01:39:46.300Z,0.20
2018-03-27T01:42:13.867Z,0.20
2018-03-27T01:44:41.419Z,0.20
2018-03-27T01:47:08.977Z,0.20
2018-03-27T01:49:37.299Z,0.20
2018-03-27T01:52:04.838Z,0.20
2018-03-27T01:54:32.395Z,0.20
2018-03-27T01:57:00.698Z,0.00
2018-03-27T01:59:29.036Z,0.00
2018-03-27T02:01:57.361Z,-0.10
2018-03-27T02:04:24.979Z,-0.10
2018-03-27T02:06:52.523Z,-0.10
2018-03-27T02:09:20.855Z,-0.20
2018-03-27T02:11:54.195Z,-0.20
2018-03-27T02:14:27.500Z,-0.10
2018-03-27T02:17:00.676Z,-0.10
2018-03-27T02:19:34.071Z,-0.10
2018-03-27T02:22:01.130Z,-0.10
2018-03-27T02:24:43.568Z,-0.10
2018-03-27T02:27:11.103Z,-0.20
2018-03-27T02:29:38.663Z,-0.20
2018-03-27T02:32:07.708Z,-0.10
2018-03-27T02:34:35.274Z,-0.10
2018-03-27T02:37:02.820Z,-0.10
2018-03-27T02:39:30.392Z,-0.10
2018-03-27T02:41:57.967Z,-0.10
2018-03-27T02:44:25.570Z,-0.10
2018-03-27T02:46:53.113Z,-0.10
2018-03-27T02:49:20.673Z,-0.10
2018-03-27T02:51:48.264Z,-0.10
2018-03-27T02:54:15.837Z,-0.10
2018-03-27T02:56:43.400Z,-0.10
2018-03-27T02:59:11.002Z,-0.10
2018-03-27T03:01:38.548Z,-0.10
2018-03-27T03:04:06.095Z,-0.10
2018-03-27T03:06:34.416Z,-0.10
2018-03-27T03:09:01.971Z,-0.10
2018-03-27T03:11:29.546Z,-0.10
2018-03-27T03:13:57.096Z,-0.10
2018-03-27T03:16:25.424Z,-0.10
2018-03-27T03:18:52.973Z,-0.10
2018-03-27T03:21:21.304Z,-0.10
2018-03-27T03:23:48.855Z,-0.10
2018-03-27T03:26:16.425Z,-0.10
2018-03-27T03:28:43.976Z,-0.10
2018-03-27T03:31:12.329Z,-0.10
2018-03-27T03:33:39.872Z,-0.10
2018-03-27T03:36:07.443Z,-0.10
2018-03-27T03:38:34.984Z,-0.10
2018-03-27T03:41:02.594Z,-0.10
2018-03-27T03:43:30.143Z,-0.10
2018-03-27T03:45:57.699Z,-0.10
2018-03-27T03:48:26.000Z,-0.20
2018-03-27T03:50:53.561Z,-0.20
2018-03-27T03:53:21.111Z,-0.20
2018-03-27T03:55:49.439Z,-0.20
2018-03-27T03:58:17.002Z,-0.20
2018-03-27T04:00:44.560Z,-0.20
2018-03-27T04:03:12.859Z,-0.20
2018-03-27T04:05:40.410Z,-0.20
2018-03-27T04:08:08.719Z,-0.20
2018-03-27T04:10:36.280Z,-0.20
2018-03-27T04:13:04.590Z,-0.20
2018-03-27T04:15:32.756Z,-0.20
2018-03-27T04:18:01.068Z,-0.20
2018-03-27T04:20:28.630Z,-0.20
2018-03-27T04:22:56.176Z,-0.20
2018-03-27T04:25:24.503Z,-0.20
2018-03-27T04:27:52.056Z,-0.20
2018-03-27T04:30:19.618Z,-0.20
2018-03-27T04:32:47.928Z,-0.20
2018-03-27T04:35:15.525Z,-0.20
2018-03-27T04:37:43.088Z,-0.20
2018-03-27T04:40:10.651Z,-0.20
2018-03-27T04:42:38.195Z,-0.20
2018-03-27T04:45:06.523Z,-0.20
2018-03-27T04:47:34.070Z,-0.20
2018-03-27T04:50:01.626Z,-0.10
2018-03-27T04:52:30.003Z,-0.20
2018-03-27T04:54:57.521Z,-0.20
2018-03-27T04:57:25.126Z,-0.20
2018-03-27T04:59:52.671Z,-0.20
2018-03-27T05:02:20.341Z,-0.20
2018-03-27T05:04:47.855Z,-0.10
2018-03-27T05:07:15.425Z,-0.10
2018-03-27T05:09:42.964Z,-0.10
2018-03-27T05:12:11.294Z,-0.10
2018-03-27T05:14:39.624Z,-0.10
2018-03-27T05:17:07.235Z,-0.20
2018-03-27T05:19:34.899Z,-0.10
2018-03-27T05:22:02.483Z,-0.20
2018-03-27T05:24:30.029Z,-0.10
2018-03-27T05:26:57.620Z,-0.10
2018-03-27T05:29:25.150Z,0.00
2018-03-27T05:31:52.713Z,0.00
2018-03-27T05:34:20.247Z,0.10
2018-03-27T05:36:47.828Z,0.10
2018-03-27T05:39:15.370Z,0.20
2018-03-27T05:41:42.919Z,0.20
2018-03-27T05:44:10.459Z,0.20
2018-03-27T05:46:38.023Z,0.30
2018-03-27T05:49:06.327Z,0.30
2018-03-27T05:51:33.880Z,0.30
2018-03-27T05:54:02.206Z,0.40
2018-03-27T05:56:29.764Z,0.40
2018-03-27T05:58:57.312Z,0.50
2018-03-27T06:01:25.631Z,0.50
2018-03-27T06:03:53.175Z,0.50
2018-03-27T06:06:21.502Z,0.60
2018-03-27T06:08:49.047Z,0.60
2018-03-27T06:11:16.653Z,0.70
2018-03-27T06:13:44.171Z,0.80
2018-03-27T06:16:12.513Z,1.00
2018-03-27T06:18:40.095Z,1.00
2018-03-27T06:21:07.680Z,1.10
2018-03-27T06:23:35.227Z,1.20
2018-03-27T06:26:02.793Z,1.20
2018-03-27T06:28:30.340Z,1.30
2018-03-27T06:30:57.904Z,1.30
2018-03-27T06:33:26.234Z,1.30
2018-03-27T06:35:53.772Z,1.30
2018-03-27T06:38:21.323Z,1.30
2018-03-27T06:40:49.631Z,1.60
2018-03-27T06:43:17.187Z,1.60
2018-03-27T06:45:45.486Z,1.80
2018-03-27T06:48:13.815Z,1.90
2018-03-27T06:50:41.353Z,1.80
2018-03-27T06:53:08.919Z,2.00
2018-03-27T06:55:36.467Z,2.10
2018-03-27T06:58:04.030Z,2.20
2018-03-27T07:00:31.572Z,2.20
2018-03-27T07:02:59.119Z,2.30
2018-03-27T07:05:26.783Z,2.30
2018-03-27T07:07:54.256Z,2.40
2018-03-27T07:10:21.802Z,2.50
2018-03-27T07:12:49.364Z,2.50
2018-03-27T07:15:16.907Z,2.50
2018-03-27T07:17:44.472Z,2.50
2018-03-27T07:20:12.814Z,2.40
2018-03-27T07:22:41.139Z,2.40
2018-03-27T07:25:08.676Z,2.40
2018-03-27T07:27:36.256Z,2.50
2018-03-27T07:30:04.555Z,2.50
2018-03-27T07:32:32.111Z,2.50
2018-03-27T07:34:59.667Z,2.60
2018-03-27T07:37:27.224Z,2.60
2018-03-27T07:39:54.764Z,2.70
2018-03-27T07:42:22.351Z,2.80
2018-03-27T07:44:49.888Z,2.90
2018-03-27T07:47:17.448Z,3.00
2018-03-27T07:49:45.750Z,3.30
2018-03-27T07:52:13.321Z,3.30
2018-03-27T07:54:40.860Z,3.40
2018-03-27T07:57:08.414Z,3.50
2018-03-27T07:59:35.943Z,3.70
2018-03-27T08:02:03.504Z,3.80
2018-03-27T08:04:31.040Z,3.80
2018-03-27T08:06:58.601Z,3.90
2018-03-27T08:09:26.135Z,4.00
2018-03-27T08:11:53.679Z,4.10
2018-03-27T08:14:21.240Z,4.10
2018-03-27T08:16:49.552Z,4.40
2018-03-27T08:19:17.121Z,4.40
2018-03-27T08:21:44.692Z,4.60
2018-03-27T08:24:12.514Z,4.70
2018-03-27T08:26:39.936Z,4.90
2018-03-27T08:29:07.495Z,5.20
2018-03-27T08:31:35.810Z,5.20
2018-03-27T08:34:03.359Z,5.20
2018-03-27T08:36:31.668Z,5.40
2018-03-27T08:38:59.228Z,5.30
2018-03-27T08:41:26.769Z,5.40
2018-03-27T08:43:54.556Z,5.40
2018-03-27T08:46:22.883Z,5.50
2018-03-27T08:48:50.468Z,5.50
2018-03-27T08:51:18.072Z,5.60
2018-03-27T08:53:45.627Z,5.60
2018-03-27T08:56:13.184Z,5.60
2018-03-27T08:58:40.774Z,5.60
2018-03-27T09:01:09.099Z,5.60
2018-03-27T09:03:37.465Z,5.60
2018-03-27T09:06:04.993Z,5.60
2018-03-27T09:08:32.608Z,5.50
2018-03-27T09:11:00.142Z,5.50
2018-03-27T09:13:28.491Z,5.50
2018-03-27T09:15:56.797Z,5.70
2018-03-27T09:18:24.347Z,5.70
2018-03-27T09:20:52.651Z,6.00
2018-03-27T09:23:20.278Z,6.00
2018-03-27T09:25:47.796Z,6.00
2018-03-27T09:28:15.351Z,6.00
2018-03-27T09:30:43.656Z,6.50
2018-03-27T09:33:12.131Z,6.70
2018-03-27T09:35:39.723Z,6.70
2018-03-27T09:38:07.296Z,6.80
2018-03-27T09:40:34.835Z,6.70
2018-03-27T09:43:02.385Z,6.60
2018-03-27T09:45:29.973Z,6.60
2018-03-27T09:47:57.507Z,6.70
2018-03-27T09:50:25.041Z,6.70
2018-03-27T09:52:53.379Z,6.90
2018-03-27T09:55:20.915Z,6.90
2018-03-27T09:57:48.464Z,6.90
2018-03-27T10:00:16.027Z,7.00
2018-03-27T10:02:43.568Z,7.20
2018-03-27T10:05:11.120Z,7.40
2018-03-27T10:07:38.660Z,7.60
2018-03-27T10:10:06.977Z,7.50
2018-03-27T10:12:34.620Z,7.50
2018-03-27T10:15:02.965Z,7.70
2018-03-27T10:17:30.511Z,7.70
2018-03-27T10:19:58.430Z,7.50
2018-03-27T10:22:26.020Z,7.70
2018-03-27T10:24:53.571Z,8.00
2018-03-27T10:27:21.285Z,8.10
2018-03-27T10:29:48.991Z,8.00
2018-03-27T10:32:16.702Z,8.10
2018-03-27T10:34:44.273Z,8.30
2018-03-27T10:37:11.803Z,8.60
2018-03-27T10:39:39.344Z,8.60
2018-03-27T10:42:07.639Z,8.00
2018-03-27T10:44:35.961Z,7.90
2018-03-27T10:47:03.499Z,7.90
2018-03-27T10:49:31.830Z,7.90
2018-03-27T10:51:59.359Z,7.90
2018-03-27T10:54:27.677Z,8.10
2018-03-27T10:56:55.208Z,8.10
2018-03-27T10:59:23.529Z,8.20
2018-03-27T11:01:51.072Z,8.10
2018-03-27T11:04:19.392Z,8.00
2018-03-27T11:06:46.951Z,8.00
2018-03-27T11:09:14.505Z,8.00
2018-03-27T11:11:42.808Z,8.10
2018-03-27T11:14:11.132Z,8.20
2018-03-27T11:16:38.665Z,8.30
2018-03-27T11:19:06.980Z,8.30
2018-03-27T11:21:34.517Z,8.30
2018-03-27T11:24:02.849Z,8.30
2018-03-27T11:26:30.404Z,8.30
2018-03-27T11:28:57.973Z,8.10
2018-03-27T11:31:25.510Z,7.90
2018-03-27T11:33:53.850Z,7.80
2018-03-27T11:36:21.388Z,7.80
2018-03-27T11:38:49.690Z,7.80
2018-03-27T11:41:17.247Z,7.80
2018-03-27T11:43:45.553Z,8.30
2018-03-27T11:46:13.136Z,8.30
2018-03-27T11:48:40.672Z,8.50
2018-03-27T11:51:09.015Z,8.40
2018-03-27T11:53:36.548Z,8.40
2018-03-27T11:56:04.864Z,8.40
2018-03-27T11:58:32.397Z,8.40
2018-03-27T12:00:59.955Z,8.50
2018-03-27T12:03:27.528Z,8.50
2018-03-27T12:05:55.851Z,8.60
2018-03-27T12:08:23.416Z,8.60
2018-03-27T12:10:50.963Z,8.70
2018-03-27T12:13:19.268Z,8.70
2018-03-27T12:15:47.592Z,8.50
2018-03-27T12:18:15.128Z,8.50
2018-03-27T12:20:43.454Z,8.50
2018-03-27T12:23:10.986Z,8.50
2018-03-27T12:25:39.327Z,8.80
2018-03-27T12:28:06.855Z,8.70
2018-03-27T12:30:35.171Z,8.60
2018-03-27T12:33:02.732Z,8.60
2018-03-27T12:35:30.286Z,8.70
2018-03-27T12:37:58.623Z,8.40
2018-03-27T12:40:26.181Z,8.40
2018-03-27T12:42:53.720Z,8.30
2018-03-27T12:45:22.039Z,8.40
2018-03-27T12:47:49.625Z,8.40
2018-03-27T12:50:17.990Z,9.00
2018-03-27T12:52:45.520Z,9.00
2018-03-27T12:55:13.070Z,9.20
2018-03-27T12:57:40.600Z,9.20
2018-03-27T13:00:08.148Z,8.80
2018-03-27T13:02:36.511Z,8.50
2018-03-27T13:05:04.060Z,8.50
2018-03-27T13:07:31.596Z,8.50
2018-03-27T13:09:59.160Z,8.40
2018-03-27T13:12:27.463Z,8.60
2018-03-27T13:14:55.011Z,8.60
2018-03-27T13:17:23.347Z,8.90
2018-03-27T13:19:50.876Z,8.90
2018-03-27T13:22:19.200Z,9.10
2018-03-27T13:24:46.740Z,9.20
2018-03-27T13:27:15.061Z,9.20
2018-03-27T13:29:42.626Z,9.20
2018-03-27T13:32:10.182Z,9.30
2018-03-27T13:34:37.716Z,9.20
2018-03-27T13:37:05.275Z,9.00
2018-03-27T13:39:32.808Z,8.70
2018-03-27T13:42:00.358Z,8.60
2018-03-27T13:44:28.664Z,8.20
2018-03-27T13:46:56.219Z,8.20
2018-03-27T13:49:23.756Z,8.30
2018-03-27T13:51:51.308Z,8.50
2018-03-27T13:54:19.623Z,8.70
2018-03-27T13:56:47.189Z,8.70
2018-03-27T13:59:14.720Z,8.70
2018-03-27T14:01:42.273Z,8.70
2018-03-27T14:04:09.812Z,8.70
2018-03-27T14:06:37.372Z,8.60
2018-03-27T14:09:05.692Z,8.20
2018-03-27T14:11:34.012Z,8.10
2018-03-27T14:14:01.553Z,8.10
2018-03-27T14:16:29.112Z,8.00
2018-03-27T14:18:57.413Z,7.80
2018-03-27T14:21:24.976Z,7.80
2018-03-27T14:23:53.292Z,7.50
2018-03-27T14:26:20.856Z,7.50
2018-03-27T14:28:48.412Z,7.40
2018-03-27T14:31:16.731Z,7.20
2018-03-27T14:33:44.260Z,7.20
2018-03-27T14:36:11.815Z,7.10
2018-03-27T14:38:40.181Z,7.00
2018-03-27T14:41:07.735Z,7.00
2018-03-27T14:43:35.273Z,7.00
2018-03-27T14:46:03.597Z,7.00
2018-03-27T14:48:31.127Z,7.00
2018-03-27T14:50:58.682Z,7.00
2018-03-27T14:53:26.216Z,6.90
2018-03-27T14:55:53.769Z,6.90
2018-03-27T14:58:21.310Z,6.90
2018-03-27T15:00:48.836Z,7.00
2018-03-27T15:03:16.383Z,7.00
2018-03-27T15:05:43.924Z,6.90
2018-03-27T15:08:12.244Z,6.80
2018-03-27T15:10:39.777Z,6.80
2018-03-27T15:13:07.331Z,6.70
2018-03-27T15:15:34.882Z,6.70
2018-03-27T15:18:02.431Z,6.70
2018-03-27T15:20:30.012Z,6.60
2018-03-27T15:22:57.576Z,6.60
2018-03-27T15:25:25.103Z,6.60
2018-03-27T15:27:53.475Z,6.50
2018-03-27T15:30:21.009Z,6.50
2018-03-27T15:32:48.580Z,6.50
2018-03-27T15:35:16.113Z,6.40
2018-03-27T15:37:43.673Z,6.40
2018-03-27T15:40:11.205Z,6.40
2018-03-27T15:42:38.759Z,6.30
2018-03-27T15:45:06.287Z,6.30
2018-03-27T15:47:33.835Z,6.30
2018-03-27T15:50:01.377Z,6.30
2018-03-27T15:52:28.931Z,6.20
2018-03-27T15:54:57.233Z,6.20
2018-03-27T15:57:24.779Z,6.20
2018-03-27T15:59:53.084Z,6.40
2018-03-27T16:02:21.403Z,6.50
2018-03-27T16:04:48.936Z,6.50
2018-03-27T16:07:17.256Z,6.70
2018-03-27T16:09:44.793Z,6.70
2018-03-27T16:12:13.108Z,6.60
2018-03-27T16:14:40.649Z,6.60
2018-03-27T16:17:08.966Z,6.50
2018-03-27T16:19:36.496Z,6.50
2018-03-27T16:22:04.051Z,6.50
2018-03-27T16:24:31.596Z,6.40
2018-03-27T16:26:59.149Z,6.40
2018-03-27T16:29:26.692Z,6.30
2018-03-27T16:31:55.037Z,6.20
2018-03-27T16:34:22.571Z,6.20
2018-03-27T16:36:50.888Z,6.00
2018-03-27T16:39:18.424Z,6.10
2018-03-27T16:41:46.743Z,5.80
2018-03-27T16:44:14.281Z,5.80
2018-03-27T16:46:42.619Z,5.60
2018-03-27T16:49:10.159Z,5.60
2018-03-27T16:51:37.700Z,5.50
2018-03-27T16:54:05.247Z,5.40
2018-03-27T16:56:32.785Z,5.20
2018-03-27T16:59:00.340Z,5.10
2018-03-27T17:01:27.892Z,5.10
2018-03-27T17:03:55.464Z,5.00
2018-03-27T17:06:23.797Z,4.80
2018-03-27T17:08:51.348Z,4.80
2018-03-27T17:11:18.913Z,4.70
2018-03-27T17:13:47.227Z,4.50
2018-03-27T17:16:14.756Z,4.40
2018-03-27T17:18:43.120Z,4.30
2018-03-27T17:21:10.664Z,4.20
2018-03-27T17:23:38.244Z,4.20
2018-03-27T17:26:05.787Z,4.10
2018-03-27T17:28:33.367Z,4.00
2018-03-27T17:31:00.903Z,3.90
2018-03-27T17:33:29.231Z,3.70
2018-03-27T17:35:56.773Z,3.60
2018-03-27T17:38:25.093Z,3.50
2018-03-27T17:40:52.622Z,3.50
2018-03-27T17:43:20.175Z,3.40
2018-03-27T17:45:47.703Z,3.30
2018-03-27T17:48:15.300Z,3.20
2018-03-27T17:50:42.829Z,3.20
2018-03-27T17:53:10.394Z,3.10
2018-03-27T17:55:38.722Z,3.00
2018-03-27T17:58:06.273Z,3.00
2018-03-27T18:00:33.829Z,3.00
2018-03-27T18:03:01.383Z,3.00
2018-03-27T18:05:29.714Z,3.00
2018-03-27T18:07:57.311Z,3.00
2018-03-27T18:10:24.852Z,3.00
2018-03-27T18:12:52.423Z,2.90
2018-03-27T18:15:19.960Z,3.00
2018-03-27T18:17:47.532Z,2.90
2018-03-27T18:20:15.071Z,2.90
2018-03-27T18:22:42.624Z,2.90
2018-03-27T18:25:10.177Z,2.90
2018-03-27T18:27:37.713Z,2.90
2018-03-27T18:30:05.320Z,2.80
2018-03-27T18:32:32.864Z,2.80
2018-03-27T18:35:01.190Z,2.70
2018-03-27T18:37:28.724Z,2.70
2018-03-27T18:39:57.042Z,2.70
2018-03-27T18:42:24.581Z,2.60
2018-03-27T18:44:52.900Z,2.60
2018-03-27T18:47:20.434Z,2.60
2018-03-27T18:49:47.991Z,2.50
2018-03-27T18:52:15.556Z,2.50
2018-03-27T18:54:43.917Z,2.30
2018-03-27T18:57:11.448Z,2.30
2018-03-27T18:59:39.783Z,2.30
2018-03-27T19:02:07.331Z,2.20
2018-03-27T19:04:34.894Z,2.20
2018-03-27T19:07:03.204Z,2.20
2018-03-27T19:09:30.783Z,2.20
2018-03-27T19:11:58.316Z,2.20
2018-03-27T19:14:26.631Z,2.20
2018-03-27T19:16:54.172Z,2.20
2018-03-27T19:19:22.504Z,2.20
2018-03-27T19:21:50.043Z,2.30
2018-03-27T19:24:18.371Z,2.20
2018-03-27T19:26:45.895Z,2.20
2018-03-27T19:29:14.212Z,2.20
2018-03-27T19:31:41.749Z,2.20
2018-03-27T19:34:09.329Z,2.20
2018-03-27T19:36:37.631Z,2.00
2018-03-27T19:39:05.904Z,2.00
2018-03-27T19:41:34.205Z,1.80
2018-03-27T19:44:02.520Z,1.70
2018-03-27T19:46:30.087Z,1.70
2018-03-27T19:48:57.633Z,1.70
2018-03-27T19:51:25.933Z,1.60
2018-03-27T19:53:53.493Z,1.60
2018-03-27T19:56:21.796Z,1.70
2018-03-27T19:58:49.347Z,1.60
2018-03-27T20:01:17.655Z,1.70
2018-03-27T20:03:45.231Z,1.70
2018-03-27T20:06:12.767Z,1.70
2018-03-27T20:08:40.304Z,1.70
2018-03-27T20:11:07.860Z,1.70
2018-03-27T20:13:35.393Z,1.60
2018-03-27T20:16:03.749Z,1.60
2018-03-27T20:18:31.255Z,1.60
2018-03-27T20:20:59.573Z,1.50
2018-03-27T20:23:27.119Z,1.50
2018-03-27T20:25:55.441Z,1.50
2018-03-27T20:28:22.992Z,1.50
2018-03-27T20:30:50.553Z,1.50
2018-03-27T20:33:18.864Z,1.50
2018-03-27T20:35:46.417Z,1.50
2018-03-27T20:38:14.771Z,1.50
2018-03-27T20:40:42.291Z,1.50
2018-03-27T20:43:09.824Z,1.50
2018-03-27T20:45:37.372Z,1.60
2018-03-27T20:48:04.899Z,1.60
2018-03-27T20:50:32.443Z,1.60
2018-03-27T20:52:59.980Z,1.50
2018-03-27T20:55:27.536Z,1.50
2018-03-27T20:57:55.069Z,1.50
2018-03-27T21:00:23.395Z,1.50
2018-03-27T21:02:50.944Z,1.40
2018-03-27T21:05:19.265Z,1.50
2018-03-27T21:07:46.808Z,1.40
2018-03-27T21:10:14.367Z,1.50
2018-03-27T21:12:41.903Z,1.40
2018-03-27T21:15:09.490Z,1.40
2018-03-27T21:17:37.023Z,1.30
2018-03-27T21:20:04.577Z,1.40
2018-03-27T21:22:32.110Z,1.40
2018-03-27T21:25:00.428Z,1.40
2018-03-27T21:27:28.200Z,1.40
2018-03-27T21:29:55.763Z,1.40
2018-03-27T21:32:24.090Z,1.30
2018-03-27T21:34:51.649Z,1.30
2018-03-27T21:37:19.196Z,1.20
2018-03-27T21:39:47.512Z,1.10
2018-03-27T21:42:15.052Z,1.10
2018-03-27T21:44:42.605Z,1.10
2018-03-27T21:47:10.156Z,1.20
2018-03-27T21:49:37.692Z,1.10
2018-03-27T21:52:05.286Z,1.10
2018-03-27T21:54:32.828Z,1.00
2018-03-27T21:57:00.375Z,1.00
2018-03-27T21:59:28.691Z,1.00
2018-03-27T22:01:56.248Z,1.00
2018-03-27T22:04:24.547Z,0.90
2018-03-27T22:06:52.104Z,0.90
2018-03-27T22:09:20.403Z,0.80
2018-03-27T22:11:47.959Z,0.80
2018-03-27T22:14:16.264Z,0.80
2018-03-27T22:16:43.813Z,0.70
2018-03-27T22:19:11.343Z,0.80
2018-03-27T22:21:38.907Z,0.70
2018-03-27T22:24:06.444Z,0.70
2018-03-27T22:26:34.088Z,0.60
2018-03-27T22:29:01.632Z,0.60
2018-03-27T22:31:29.258Z,0.60
2018-03-27T22:33:56.759Z,0.60
2018-03-27T22:36:24.331Z,0.60
2018-03-27T22:38:51.859Z,0.50
2018-03-27T22:41:20.177Z,0.40
2018-03-27T22:43:47.719Z,0.40
2018-03-27T22:46:16.036Z,0.30
2018-03-27T22:48:43.589Z,0.30
2018-03-27T22:51:11.165Z,0.30
2018-03-27T22:53:38.748Z,0.20
2018-03-27T22:56:06.307Z,0.20
2018-03-27T22:58:34.608Z,0.10
2018-03-27T23:01:02.173Z,0.10
2018-03-27T23:03:29.703Z,0.10
2018-03-27T23:05:57.255Z,0.00
2018-03-27T23:08:24.812Z,0.00
2018-03-27T23:10:52.381Z,-0.10
2018-03-27T23:13:19.931Z,-0.10
2018-03-27T23:15:47.495Z,-0.10
2018-03-27T23:18:15.804Z,-0.30
2018-03-27T23:20:43.354Z,-0.30
2018-03-27T23:23:11.660Z,-0.30
2018-03-27T23:25:39.215Z,-0.40
2018-03-27T23:28:07.540Z,-0.40
2018-03-27T23:30:35.114Z,-0.50
2018-03-27T23:33:02.680Z,-0.50
2018-03-27T23:35:30.220Z,-0.50
2018-03-27T23:37:58.544Z,-0.50
2018-03-27T23:40:26.084Z,-0.60
2018-03-27T23:42:54.420Z,-0.50
2018-03-27T23:45:21.956Z,-0.50
2018-03-27T23:47:49.531Z,-0.50
2018-03-27T23:50:17.076Z,-0.50
2018-03-27T23:52:44.642Z,-0.60
2018-03-27T23:55:12.952Z,-0.60
2018-03-27T23:57:41.280Z,-0.60
